Time;durP1;ratioP1;P1;durP2;ratioP2;P2;SDS_P1;SDS_P2;PMS_P1;PMS_P2;Temp;Humidity;BMP_temperature;BMP_pressure;BME280_temperature;BME280_humidity;BME280_pressure;Samples;Min_cycle;Max_cycle;Signal;HPM_P1;HPM_P2
2022/09/28 00:02:19;;;;;;;10.32;7.10;;;;;;;14.51;86.16;98264.22;4905506;29;20509;-92
2022/09/28 00:04:45;;;;;;;9.65;6.25;;;;;;;14.52;85.71;98255.72;4920058;29;20111;-92
2022/09/28 00:07:11;;;;;;;23.02;12.68;;;;;;;14.35;86.61;98253.06;4921081;29;20064;-92
2022/09/28 00:09:37;;;;;;;20.92;10.63;;;;;;;14.12;86.90;98241.63;4904875;29;20039;-91
2022/09/28 00:12:03;;;;;;;20.08;10.63;;;;;;;14.02;86.98;98236.53;4889187;29;20028;-92
2022/09/28 00:14:31;;;;;;;13.13;9.27;;;;;;;14.19;86.06;98260.88;4920330;29;20475;-92
2022/09/28 00:16:56;;;;;;;8.80;6.40;;;;;;;14.04;86.74;98239.72;4905051;29;20434;-92
2022/09/28 00:19:22;;;;;;;13.18;5.70;;;;;;;13.98;86.14;98228.25;4904900;29;20046;-92
2022/09/28 00:21:49;;;;;;;7.93;5.68;;;;;;;14.14;85.54;98244.81;4905464;29;20042;-92
2022/09/28 00:24:15;;;;;;;8.23;5.85;;;;;;;14.11;85.40;98226.50;4904756;29;20043;-92
2022/09/28 00:26:54;;;;;;;11.50;6.40;;;;;;;14.27;85.08;98235.72;4904443;29;20176;-92
2022/09/28 00:29:33;;;;;;;9.63;5.97;;;;;;;14.29;85.56;98238.09;4920522;29;20028;-92
2022/09/28 00:32:09;;;;;;;15.77;8.50;;;;;;;14.08;86.84;98237.97;4889693;29;20388;-92
2022/09/28 00:34:44;;;;;;;17.55;10.10;;;;;;;13.88;87.01;98223.97;4904233;29;20039;-92
2022/09/28 00:37:10;;;;;;;15.38;8.57;;;;;;;13.94;86.74;98232.72;4906310;29;20056;-93
2022/09/28 00:39:37;;;;;;;10.95;7.45;;;;;;;13.99;85.91;98227.16;4901356;29;20032;-92
2022/09/28 00:42:09;;;;;;;11.60;6.93;;;;;;;14.18;85.39;98239.56;4885781;29;20028;-92
2022/09/28 00:44:42;;;;;;;13.00;7.47;;;;;;;14.20;84.97;98242.75;4897334;29;20027;-92
2022/09/28 00:47:25;;;;;;;9.20;6.50;;;;;;;14.28;84.55;98250.84;4905375;29;20035;-92
2022/09/28 00:50:10;;;;;;;9.32;6.57;;;;;;;14.24;84.97;98255.31;4920010;29;20035;-92
2022/09/28 00:52:41;;;;;;;10.57;7.35;;;;;;;14.12;85.37;98247.03;4920382;29;20028;-91
2022/09/28 00:55:09;;;;;;;12.90;8.17;;;;;;;13.99;86.26;98248.81;4904563;29;20483;-92
2022/09/28 00:57:35;;;;;;;11.40;8.13;;;;;;;14.00;86.68;98260.41;4919807;29;20032;-92
2022/09/28 01:00:02;;;;;;;9.57;6.28;;;;;;;13.83;87.04;98234.16;4904299;29;20044;-92
2022/09/28 01:02:28;;;;;;;8.38;5.85;;;;;;;14.07;86.08;98250.72;4903738;29;20038;-92
2022/09/28 01:04:54;;;;;;;8.15;5.30;;;;;;;14.03;86.10;98235.41;4904425;29;20087;-92
2022/09/28 01:07:20;;;;;;;16.35;8.02;;;;;;;14.04;85.08;98242.44;4903675;29;20023;-92
2022/09/28 01:09:45;;;;;;;13.05;7.03;;;;;;;14.12;85.07;98260.56;4885208;29;20036;-92
2022/09/28 01:12:13;;;;;;;9.95;7.00;;;;;;;13.84;86.20;98227.63;4885258;29;20036;-92
2022/09/28 01:14:39;;;;;;;9.07;6.35;;;;;;;14.04;85.37;98258.66;4903541;29;20035;-92
2022/09/28 01:17:14;;;;;;;9.70;7.25;;;;;;;13.92;86.26;98256.59;4903951;29;20034;-92
2022/09/28 01:20:05;;;;;;;11.07;6.80;;;;;;;13.78;86.70;98251.34;4919548;29;20476;-92
2022/09/28 01:23:22;;;;;;;10.30;6.38;;;;;;;13.63;85.78;98239.06;4919413;29;20036;-92
2022/09/28 01:26:06;;;;;;;8.15;5.38;;;;;;;13.68;85.21;98263.25;4892234;29;20134;-92
2022/09/28 01:28:34;;;;;;;10.48;5.97;;;;;;;13.46;86.16;98237.13;4900165;29;20036;-93
2022/09/28 01:31:05;;;;;;;7.97;5.72;;;;;;;13.73;85.21;98254.19;4884278;29;20058;-92
2022/09/28 01:33:37;;;;;;;8.60;5.25;;;;;;;13.70;84.78;98235.91;4900539;29;20036;-91
2022/09/28 01:36:07;;;;;;;9.88;5.88;;;;;;;13.51;86.14;98228.09;4885576;29;20068;-92
2022/09/28 01:39:03;;;;;;;10.65;6.35;;;;;;;13.58;86.61;98255.44;4884629;29;20075;-92
2022/09/28 01:41:29;;;;;;;12.02;5.78;;;;;;;13.48;85.59;98223.28;4900448;29;20027;-92
2022/09/28 01:43:55;;;;;;;9.13;5.13;;;;;;;13.57;85.05;98234.13;4904097;29;20066;-92
2022/09/28 01:46:22;;;;;;;9.00;5.22;;;;;;;13.71;84.65;98235.56;4887612;29;20024;-92
2022/09/28 01:49:02;;;;;;;11.27;5.07;;;;;;;13.65;84.74;98226.00;4904370;29;20104;-92
2022/09/28 01:51:32;;;;;;;12.38;5.60;;;;;;;13.73;84.33;98229.84;4889039;29;20035;-92
2022/09/28 01:54:00;;;;;;;8.55;5.40;;;;;;;13.71;85.03;98235.56;4918613;29;20028;-91
2022/09/28 01:56:28;;;;;;;6.82;4.63;;;;;;;13.81;84.80;98249.91;4887498;29;20027;-91
2022/09/28 01:59:09;;;;;;;9.60;5.10;;;;;;;13.87;84.38;98256.75;4888593;29;20036;-92
2022/09/28 02:01:40;;;;;;;9.93;5.45;;;;;;;13.61;85.33;98251.31;4918743;29;20066;-92
2022/09/28 02:04:28;;;;;;;7.63;4.95;;;;;;;13.66;84.55;98243.06;4902535;29;20036;-92
2022/09/28 02:07:00;;;;;;;9.52;5.57;;;;;;;13.55;85.48;98256.09;4920791;29;20052;-91
2022/09/28 02:09:28;;;;;;;;;;;;;;;13.46;86.02;98266.06;4903603;29;20027;-91
2022/09/28 02:11:57;;;;;;;8.75;4.47;;;;;;;13.29;86.19;98264.13;4903078;29;19922;-91
2022/09/28 02:14:24;;;;;;;11.55;5.07;;;;;;;13.21;86.30;98254.84;4903743;29;20038;-91
2022/09/28 02:16:51;;;;;;;8.65;5.50;;;;;;;13.04;87.11;98236.66;4902963;29;20032;-92
2022/09/28 02:19:24;;;;;;;6.32;5.18;;;;;;;13.20;86.40;98247.84;4897587;29;20035;-91
2022/09/28 02:21:56;;;;;;;8.32;4.75;;;;;;;13.38;86.40;98264.13;4903481;29;20036;-91
2022/09/28 02:24:37;;;;;;;;;;;;;;;13.49;86.14;98257.34;4919067;29;20042;-92
2022/09/28 02:27:15;;;;;;;8.10;4.28;;;;;;;13.27;86.02;98242.78;4918142;29;19915;-91
2022/09/28 02:29:43;;;;;;;5.82;3.90;;;;;;;13.27;85.38;98250.09;4884190;29;20415;-91
2022/09/28 02:32:09;;;;;;;9.32;5.13;;;;;;;13.18;86.64;98254.66;4900172;29;20032;-91
2022/09/28 02:34:35;;;;;;;6.57;4.10;;;;;;;13.25;85.90;98271.22;4899701;29;20044;-92
2022/09/28 02:37:00;;;;;;;10.40;4.63;;;;;;;13.17;85.54;98266.59;4869372;29;20563;-92
2022/09/28 02:39:28;;;;;;;8.10;4.25;;;;;;;13.29;85.23;98264.91;4900672;29;20023;-92
2022/09/28 02:41:57;;;;;;;6.25;4.28;;;;;;;13.34;85.34;98263.97;4902277;29;20031;-91
2022/09/28 02:44:44;;;;;;;5.38;3.95;;;;;;;13.44;85.20;98271.78;4902766;29;20626;-91
2022/09/28 02:47:40;;;;;;;6.53;4.47;;;;;;;13.24;86.22;98265.03;4918072;29;20024;-91
2022/09/28 02:50:20;;;;;;;8.75;4.57;;;;;;;13.12;86.74;98248.63;4920315;29;20031;-92
2022/09/28 02:53:07;;;;;;;10.80;5.07;;;;;;;13.08;86.51;98258.47;4918346;29;20075;-91
2022/09/28 02:55:48;;;;;;;7.75;4.53;;;;;;;13.08;85.78;98234.94;4902703;29;20054;-91
2022/09/28 02:58:20;;;;;;;7.25;4.00;;;;;;;13.11;85.63;98245.13;4918813;29;20030;-92
2022/09/28 03:01:02;;;;;;;8.10;4.43;;;;;;;12.94;86.50;98242.34;4918738;29;20035;-91
2022/09/28 03:03:33;;;;;;;8.73;4.20;;;;;;;13.07;86.34;98257.66;4902591;29;20030;-92
2022/09/28 03:06:00;;;;;;;7.88;3.90;;;;;;;13.04;86.13;98255.56;4905372;29;20042;-91
2022/09/28 03:08:39;;;;;;;6.93;4.30;;;;;;;12.99;86.65;98271.13;4906295;29;20050;-91
2022/09/28 03:11:13;;;;;;;6.10;3.78;;;;;;;12.83;86.65;98266.13;4905870;29;20027;-92
2022/09/28 03:13:39;;;;;;;8.57;4.53;;;;;;;12.79;86.16;98262.47;4890670;29;20103;-91
2022/09/28 03:16:12;;;;;;;8.85;3.75;;;;;;;12.92;85.38;98263.47;4890969;29;20036;-91
2022/09/28 03:18:37;;;;;;;7.03;3.63;;;;;;;13.12;84.14;98281.06;4902889;29;20415;-93
2022/09/28 03:21:03;;;;;;;6.15;3.45;;;;;;;13.09;84.02;98262.75;4887659;29;20036;-93
2022/09/28 03:23:31;;;;;;;4.40;3.40;;;;;;;13.09;84.43;98260.03;4871109;29;20031;-92
2022/09/28 03:25:56;;;;;;;7.70;3.15;;;;;;;13.14;84.47;98254.50;4903313;29;20127;-92
2022/09/28 03:28:22;;;;;;;4.70;3.63;;;;;;;13.19;84.97;98272.47;4887172;29;20024;-93
2022/09/28 03:30:48;;;;;;;7.13;3.60;;;;;;;12.95;85.39;98254.75;4903085;29;20534;-93
2022/09/28 03:33:16;;;;;;;9.27;3.67;;;;;;;12.98;85.50;98256.81;4869073;29;20075;-92
2022/09/28 03:35:43;;;;;;;7.80;4.10;;;;;;;12.90;85.86;98263.78;4902090;29;20026;-92
2022/09/28 03:38:10;;;;;;;8.20;4.20;;;;;;;12.97;85.88;98284.16;4876490;29;20053;-93
2022/09/28 03:40:37;;;;;;;6.00;4.03;;;;;;;13.02;85.45;98278.63;4853217;29;20499;-92
2022/09/28 03:43:02;;;;;;;7.88;4.43;;;;;;;13.04;85.89;98274.50;4868091;29;20476;-93
2022/09/28 03:45:29;;;;;;;4.38;3.50;;;;;;;12.94;85.65;98272.06;4868947;29;20471;-92
2022/09/28 03:47:54;;;;;;;9.00;4.10;;;;;;;12.80;86.17;98274.06;4885127;29;20060;-92
2022/09/28 03:50:20;;;;;;;7.07;4.00;;;;;;;12.72;85.48;98268.31;4870043;29;20032;-94
2022/09/28 03:52:45;;;;;;;4.68;3.72;;;;;;;12.73;85.12;98264.50;4853378;29;20460;-93
2022/09/28 03:55:11;;;;;;;6.35;3.28;;;;;;;12.88;84.24;98267.91;4852606;29;20079;-93
2022/09/28 03:57:37;;;;;;;6.60;3.28;;;;;;;12.73;84.37;98259.09;4853414;29;20021;-93
2022/09/28 04:00:05;;;;;;;9.50;4.72;;;;;;;12.65;84.80;98257.13;4852352;29;20032;-93
2022/09/28 04:02:32;;;;;;;7.78;3.13;;;;;;;12.55;84.93;98262.78;4884504;29;20024;-92
2022/09/28 04:04:57;;;;;;;7.15;3.40;;;;;;;12.54;84.65;98288.22;4853363;29;20092;-92
2022/09/28 04:07:24;;;;;;;6.68;3.03;;;;;;;12.64;84.07;98284.47;4852842;29;20033;-92
2022/09/28 04:09:59;;;;;;;4.13;2.42;;;;;;;12.66;83.92;98303.88;4854030;29;20037;-93
2022/09/28 04:12:45;;;;;;;10.63;3.10;;;;;;;12.65;83.97;98311.16;4869704;29;20036;-95
2022/09/28 04:15:11;;;;;;;5.50;4.35;;;;;;;12.59;84.23;98309.69;4868581;29;20032;-90
2022/09/28 04:17:38;;;;;;;6.97;3.72;;;;;;;12.58;83.21;98291.91;4883259;29;20440;-91
2022/09/28 04:20:05;;;;;;;4.05;2.28;;;;;;;12.62;83.72;98271.28;4868733;29;20032;-93
2022/09/28 04:22:32;;;;;;;4.00;2.70;;;;;;;12.71;83.89;98282.91;4854331;29;20036;-92
2022/09/28 04:24:58;;;;;;;7.03;3.58;;;;;;;12.80;84.42;98301.06;4854779;29;20055;-94
2022/09/28 04:30:11;;;;;;;4.13;3.08;;;;;;;12.87;84.11;98304.16;4918217;29;20050;-91
2022/09/28 04:32:42;;;;;;;5.75;2.30;;;;;;;12.97;83.42;98303.88;4885519;29;20040;-88
2022/09/28 04:35:08;;;;;;;9.97;3.40;;;;;;;12.86;82.93;98289.03;4885893;29;20028;-93
2022/09/28 04:37:36;;;;;;;4.30;3.03;;;;;;;12.99;82.18;98312.47;4877362;29;20083;-94
2022/09/28 04:40:12;;;;;;;8.68;5.78;;;;;;;12.89;82.63;98304.63;4905893;29;20035;-92
2022/09/28 04:42:37;;;;;;;4.20;2.53;;;;;;;13.03;81.99;98329.66;4904686;29;20038;-92
2022/09/28 04:45:03;;;;;;;9.30;5.05;;;;;;;13.07;81.71;98336.03;4890276;29;20031;-93
2022/09/28 04:47:29;;;;;;;4.32;3.08;;;;;;;13.13;81.34;98328.56;4889787;29;20028;-93
2022/09/28 04:49:56;;;;;;;8.10;3.38;;;;;;;13.10;80.84;98337.31;4890679;29;20469;-94
2022/09/28 04:52:22;;;;;;;7.28;3.95;;;;;;;13.02;80.68;98324.56;4922436;29;20035;-92
2022/09/28 04:54:47;;;;;;;6.30;3.08;;;;;;;13.06;80.31;98331.72;4892587;29;20036;-92
2022/09/28 04:57:39;;;;;;;25.77;15.73;;;;;;;13.08;80.93;98340.31;4891865;29;20166;-92
2022/09/28 05:00:17;;;;;;;6.88;4.78;;;;;;;13.16;80.88;98357.69;4902879;29;20073;-92
2022/09/28 05:02:44;;;;;;;6.28;2.75;;;;;;;13.06;80.40;98330.94;4894282;29;20102;-96
2022/09/28 05:05:43;;;;;;;3.70;2.53;;;;;;;13.00;80.72;98324.88;4926545;29;20035;-96
2022/09/28 05:08:56;;;;;;;4.28;2.42;;;;;;;13.27;80.40;98353.59;4909002;29;20048;-92
2022/09/28 05:11:22;;;;;;;5.55;2.38;;;;;;;13.19;79.72;98330.03;4922077;29;20438;-93
2022/09/28 05:20:44;;;;;;;7.57;4.55;;;;;;;13.09;82.15;98336.53;4937034;29;20427;-95
2022/09/28 05:23:14;;;;;;;12.63;5.60;;;;;;;13.09;83.38;98323.00;4892004;29;20075;-92
2022/09/28 05:25:45;;;;;;;10.77;5.15;;;;;;;13.03;83.92;98323.44;4891966;29;20043;-95
2022/09/28 05:28:11;;;;;;;16.27;4.73;;;;;;;13.15;83.89;98351.47;4904560;29;20053;-91
2022/09/28 05:30:37;;;;;;;10.60;5.28;;;;;;;13.17;84.48;98351.16;4918866;29;20118;-93
2022/09/28 05:33:05;;;;;;;13.27;4.70;;;;;;;13.29;83.42;98354.13;4904021;29;20023;-90
2022/09/28 05:35:40;;;;;;;16.45;9.32;;;;;;;13.32;82.89;98350.81;4906991;29;20035;-91
2022/09/28 05:38:09;;;;;;;11.02;5.25;;;;;;;13.34;83.00;98342.38;4913274;29;20116;-91
2022/09/28 05:43:50;;;;;;;146.50;99.72;;;;;;;13.64;82.62;98351.56;4933108;29;20042;-94
2022/09/28 05:46:17;;;;;;;54.45;41.33;;;;;;;13.60;81.60;98347.88;4889782;29;20058;-92
2022/09/28 05:49:30;;;;;;;75.90;24.25;;;;;;;13.76;83.03;98364.50;4924282;29;20034;-93
2022/09/28 05:51:56;;;;;;;61.22;28.10;;;;;;;13.71;83.36;98332.94;4900252;29;20028;-92
2022/09/28 05:54:21;;;;;;;36.10;14.15;;;;;;;13.88;82.21;98345.75;4915006;29;20537;-93
2022/09/28 05:57:07;;;;;;;25.60;12.48;;;;;;;13.90;81.56;98340.00;4922830;29;20033;-93
2022/09/28 05:59:34;;;;;;;43.45;15.02;;;;;;;14.03;82.50;98357.19;4955932;29;20035;-95
2022/09/28 06:01:59;;;;;;;40.53;12.32;;;;;;;13.96;82.02;98349.56;4908405;29;20050;-93
2022/09/28 06:04:25;;;;;;;13.85;6.60;;;;;;;14.13;81.42;98356.91;4955696;28;20561;-93
2022/09/28 06:06:58;;;;;;;27.92;10.00;;;;;;;14.12;80.52;98348.00;4907990;29;20035;-94
2022/09/28 06:09:24;;;;;;;23.90;8.10;;;;;;;14.29;80.01;98362.66;4924174;29;20031;-93
2022/09/28 06:12:46;;;;;;;21.33;7.13;;;;;;;14.38;80.81;98368.88;4924045;29;20027;-95
2022/09/28 06:15:32;;;;;;;;;;;;;;;14.45;80.33;98374.63;4883203;29;20120;-93
2022/09/28 06:32:58;;;;;;;5.38;3.13;;;;;;;14.81;77.55;98332.84;4789439;30;20124;-93
2022/09/28 06:35:19;;;;;;;7.47;2.90;;;;;;;15.12;76.26;98348.88;4790298;29;20058;-93
2022/09/28 06:37:46;;;;;;;4.72;1.80;;;;;;;15.18;74.23;98357.66;4847988;29;20021;-96
2022/09/28 06:40:18;;;;;;;4.95;2.50;;;;;;;15.32;73.65;98355.53;4864777;29;20049;-96
2022/09/28 06:43:33;;;;;;;8.88;3.08;;;;;;;15.40;71.26;98342.25;4859048;29;20045;-96
2022/09/28 06:46:42;;;;;;;4.63;2.15;;;;;;;15.56;73.03;98365.00;4861045;29;20042;-96
2022/09/28 06:49:09;;;;;;;8.20;2.80;;;;;;;15.61;72.80;98350.47;4826211;29;20134;-96
2022/09/28 06:52:16;;;;;;;12.93;5.57;;;;;;;15.65;72.06;98357.63;4797367;29;20053;-96
2022/09/28 06:54:51;;;;;;;8.98;3.55;;;;;;;15.85;71.75;98366.94;4931864;23;20063;-95
2022/09/28 06:58:14;;;;;;;7.30;2.67;;;;;;;15.92;72.22;98353.66;4841495;29;20047;-96
2022/09/28 07:00:45;;;;;;;6.55;2.58;;;;;;;16.20;71.70;98372.16;4746938;30;20049;-96
2022/09/28 07:05:50;;;;;;;4.65;2.60;;;;;;;16.49;71.50;98375.97;4996827;23;20048;-95
2022/09/28 07:08:16;;;;;;;9.18;3.45;;;;;;;16.32;72.40;98350.50;4916156;29;20052;-93
2022/09/28 07:10:48;;;;;;;12.68;3.13;;;;;;;16.45;69.88;98356.78;4912108;29;20421;-94
2022/09/28 07:13:15;;;;;;;11.48;4.65;;;;;;;16.72;69.50;98377.19;4899617;29;20059;-95
2022/09/28 07:15:41;;;;;;;13.23;5.15;;;;;;;16.80;71.12;98355.72;4911796;29;20102;-96
2022/09/28 07:18:32;;;;;;;5.53;2.72;;;;;;;16.84;67.99;98353.94;4920944;29;20074;-96
2022/09/28 07:21:08;;;;;;;26.95;15.32;;;;;;;16.97;69.13;98344.69;4919344;29;20048;-96
2022/09/28 07:23:37;;;;;;;8.90;4.00;;;;;;;17.17;67.88;98348.47;4934315;29;20071;-96
2022/09/28 07:26:11;;;;;;;7.10;3.33;;;;;;;17.34;66.89;98350.97;4936666;29;20099;-96
2022/09/28 07:28:54;;;;;;;7.35;3.75;;;;;;;17.49;64.55;98379.47;4940705;28;20050;-96
2022/09/28 07:31:24;;;;;;;11.93;4.65;;;;;;;17.54;67.12;98356.69;4931979;29;20063;-93
2022/09/28 07:33:52;;;;;;;6.30;4.25;;;;;;;17.72;67.31;98358.06;4922934;29;20024;-92
2022/09/28 07:36:23;;;;;;;9.18;5.10;;;;;;;17.89;66.94;98367.16;4906998;29;20039;-94
2022/09/28 07:38:49;;;;;;;19.98;5.03;;;;;;;17.89;65.87;98346.16;4922727;29;20043;-91
2022/09/28 07:41:20;;;;;;;11.05;6.60;;;;;;;18.08;65.51;98374.75;4927771;29;20029;-92
2022/09/28 07:43:46;;;;;;;9.60;4.90;;;;;;;18.13;63.57;98355.41;4898008;29;20059;-93
2022/09/28 07:46:11;;;;;;;18.20;9.90;;;;;;;18.13;64.82;98358.94;4884064;29;20023;-93
2022/09/28 07:49:46;;;;;;;10.90;5.18;;;;;;;18.23;65.13;98349.50;4890737;29;20040;-93
2022/09/28 07:52:24;;;;;;;7.13;3.75;;;;;;;18.58;65.12;98378.94;4930242;29;20040;-92
2022/09/28 07:54:53;;;;;;;8.43;4.75;;;;;;;18.52;65.02;98364.75;4906545;29;20042;-94
2022/09/28 07:57:19;;;;;;;17.90;7.53;;;;;;;18.55;64.98;98349.63;4890637;29;20024;-94
2022/09/28 07:59:54;;;;;;;20.95;10.45;;;;;;;18.70;65.56;98345.38;4922538;29;20023;-93
2022/09/28 08:02:58;;;;;;;6.40;3.53;;;;;;;18.96;62.07;98377.66;4907885;29;20027;-93
2022/09/28 08:12:02;;;;;;;10.80;4.47;;;;;;;19.23;63.85;98353.41;4941758;29;20482;-96
2022/09/28 08:14:36;;;;;;;16.02;5.88;;;;;;;19.36;63.80;98354.91;4908334;29;20070;-94
2022/09/28 08:17:03;;;;;;;8.82;4.68;;;;;;;19.59;63.24;98369.53;4894797;29;20020;-95
2022/09/28 08:22:21;;;;;;;10.05;3.72;;;;;;;19.78;62.18;98360.66;4911465;29;20056;-96
2022/09/28 08:24:49;;;;;;;7.13;3.92;;;;;;;19.79;61.00;98356.75;4905213;29;20031;-89
2022/09/28 08:27:15;;;;;;;7.03;3.72;;;;;;;19.89;59.70;98344.50;4922309;29;20131;-95
2022/09/28 08:29:44;;;;;;;11.35;4.60;;;;;;;20.08;60.11;98364.81;4922941;29;20082;-92
2022/09/28 08:32:18;;;;;;;8.23;3.53;;;;;;;20.23;57.64;98360.47;4893302;29;20038;-96
2022/09/28 08:34:51;;;;;;;7.22;3.45;;;;;;;20.30;59.22;98358.69;4922730;29;20187;-92
2022/09/28 08:37:19;;;;;;;12.35;3.67;;;;;;;20.43;59.64;98367.53;4910339;29;20206;-93
2022/09/28 08:43:57;;;;;;;6.43;2.40;;;;;;;20.66;57.23;98366.84;4833371;29;20549;-95
2022/09/28 08:49:01;;;;;;;8.73;2.88;;;;;;;20.65;56.17;98349.66;4760173;23;20344;-93
2022/09/28 08:51:29;;;;;;;3.50;2.50;;;;;;;20.80;57.42;98358.94;4890256;29;20052;-93
2022/09/28 08:54:40;;;;;;;9.90;4.80;;;;;;;20.93;56.76;98359.56;4904794;29;20055;-94
2022/09/28 08:57:21;;;;;;;7.38;3.45;;;;;;;20.91;54.32;98339.97;4855682;29;20030;-90
2022/09/28 08:59:53;;;;;;;3.83;2.35;;;;;;;21.01;54.72;98346.81;4861202;29;20038;-89
2022/09/28 09:02:32;;;;;;;6.07;2.78;;;;;;;20.96;54.23;98332.28;4876647;29;20035;-93
2022/09/28 09:05:01;;;;;;;6.30;2.55;;;;;;;21.13;52.52;98328.25;4902757;29;20119;-91
2022/09/28 09:11:15;;;;;;;4.90;2.80;;;;;;;21.30;52.95;98326.19;4934471;29;20042;-93
2022/09/28 09:18:00;;;;;;;7.95;2.80;;;;;;;21.55;52.49;98346.59;4906573;29;20106;-93
2022/09/28 09:21:13;;;;;;;10.85;4.20;;;;;;;21.55;50.31;98352.06;4912527;29;20055;-92
2022/09/28 09:24:02;;;;;;;7.03;2.10;;;;;;;21.57;49.83;98341.53;4883190;29;20052;-93
2022/09/28 09:27:26;;;;;;;4.88;1.65;;;;;;;21.69;48.44;98345.25;4853250;29;20037;-96
2022/09/28 09:30:31;;;;;;;5.88;2.05;;;;;;;21.60;48.42;98309.88;4868611;29;20044;-93
2022/09/28 09:33:15;;;;;;;3.38;1.60;;;;;;;21.82;47.44;98338.38;4842508;29;20461;-93
2022/09/28 09:36:12;;;;;;;3.97;2.63;;;;;;;21.73;49.02;98307.75;4842328;29;20038;-91
2022/09/28 09:39:16;;;;;;;4.53;2.10;;;;;;;21.99;48.91;98337.84;4858563;29;20103;-91
2022/09/28 09:42:01;;;;;;;3.03;1.58;;;;;;;22.00;46.56;98335.91;4876839;29;20045;-92
2022/09/28 09:44:48;;;;;;;4.72;2.70;;;;;;;21.96;48.35;98313.94;4861302;29;20051;-92
2022/09/28 09:47:22;;;;;;;3.45;1.70;;;;;;;22.08;46.24;98321.16;4899935;29;20044;-90
2022/09/28 09:50:34;;;;;;;3.08;1.50;;;;;;;22.26;47.00;98328.84;4898344;29;20083;-92
2022/09/28 09:53:04;;;;;;;2.80;1.30;;;;;;;22.14;44.54;98299.66;4843288;29;20652;-91
2022/09/28 09:55:39;;;;;;;8.05;2.80;;;;;;;22.43;44.92;98327.47;4813515;29;20034;-92
2022/09/28 09:58:33;;;;;;;5.47;1.77;;;;;;;22.39;43.23;98317.28;4870675;29;20035;-94
2022/09/28 10:01:06;;;;;;;4.00;2.08;;;;;;;22.48;47.76;98324.44;4889274;29;20032;-89
2022/09/28 10:03:33;;;;;;;3.45;1.55;;;;;;;22.45;44.13;98308.69;4918804;29;20050;-90
2022/09/28 10:06:04;;;;;;;6.47;2.75;;;;;;;22.58;43.66;98318.28;4903424;29;20052;-91
2022/09/28 10:08:32;;;;;;;3.90;1.10;;;;;;;22.64;42.22;98310.47;4918933;29;20044;-91
2022/09/28 10:11:18;;;;;;;1.85;1.08;;;;;;;22.71;40.10;98316.84;4919525;29;20505;-94
2022/09/28 10:13:47;;;;;;;4.22;1.00;;;;;;;22.73;38.92;98309.03;4893622;29;20040;-92
2022/09/28 10:16:15;;;;;;;1.13;0.85;;;;;;;22.80;40.18;98294.59;4906466;29;20023;-96
2022/09/28 10:18:42;;;;;;;1.40;0.70;;;;;;;22.75;41.75;98284.75;4906837;29;20035;-95
2022/09/28 10:21:19;;;;;;;6.30;1.70;;;;;;;22.91;42.54;98305.66;4922669;29;20126;-93
2022/09/28 10:23:44;;;;;;;4.25;1.55;;;;;;;23.00;43.27;98322.63;4904411;29;20129;-92
2022/09/28 10:26:48;;;;;;;4.30;1.25;;;;;;;22.91;42.58;98287.25;4890388;29;20062;-95
2022/09/28 10:29:21;;;;;;;3.88;1.58;;;;;;;23.03;42.67;98299.16;4923970;29;20051;-95
2022/09/28 10:32:05;;;;;;;3.92;1.10;;;;;;;23.12;42.00;98310.63;4922523;29;20060;-95
2022/09/28 10:34:31;;;;;;;1.85;1.05;;;;;;;23.04;39.40;98290.53;4913654;29;20048;-96
2022/09/28 10:37:04;;;;;;;2.92;0.80;;;;;;;23.31;40.74;98315.88;4897838;29;20059;-95
2022/09/28 10:39:38;;;;;;;1.38;0.77;;;;;;;23.32;37.79;98308.44;4925379;29;20140;-94
2022/09/28 10:42:11;;;;;;;1.90;0.90;;;;;;;23.43;40.33;98316.75;4908358;29;20035;-92
2022/09/28 10:44:54;;;;;;;2.65;0.88;;;;;;;23.44;38.67;98310.09;4890982;29;20031;-94
2022/09/28 10:47:22;;;;;;;1.23;0.60;;;;;;;23.32;37.66;98295.47;4922415;29;20043;-94
2022/09/28 10:49:57;;;;;;;1.38;0.90;;;;;;;23.39;38.67;98294.75;4893303;29;20055;-94
2022/09/28 10:52:40;;;;;;;7.82;4.47;;;;;;;23.39;40.89;98278.28;4909237;29;20031;-95
2022/09/28 10:55:30;;;;;;;6.22;2.58;;;;;;;23.50;42.25;98292.09;4925446;29;20420;-93
2022/09/28 10:57:56;;;;;;;6.57;1.88;;;;;;;23.43;40.01;98279.09;4892794;29;20023;-95
2022/09/28 11:00:44;;;;;;;1.88;0.80;;;;;;;23.62;39.58;98302.78;4920426;29;20134;-94
2022/09/28 11:03:26;;;;;;;1.75;0.85;;;;;;;23.55;38.29;98280.72;4900534;29;20039;-93
2022/09/28 11:06:05;;;;;;;1.83;0.70;;;;;;;23.59;36.90;98274.13;4936301;29;20090;-92
2022/09/28 11:11:15;;;;;;;1.95;0.70;;;;;;;23.88;38.35;98303.75;4904065;29;20059;-92
2022/09/28 11:14:36;;;;;;;2.55;0.90;;;;;;;23.90;39.74;98298.66;4870170;29;20044;-93
2022/09/28 11:17:37;;;;;;;2.88;1.17;;;;;;;23.93;39.23;98286.91;4909815;29;20082;-93
2022/09/28 11:20:24;;;;;;;2.20;1.50;;;;;;;23.92;39.68;98277.84;4938178;29;20127;-91
2022/09/28 11:22:51;;;;;;;2.03;0.70;;;;;;;23.90;37.44;98290.41;4956447;29;20399;-94
2022/09/28 11:25:16;;;;;;;1.17;0.52;;;;;;;23.98;36.84;98278.28;4925718;29;20027;-92
2022/09/28 11:28:04;;;;;;;1.05;0.80;;;;;;;23.97;36.73;98265.72;4922487;29;20055;-90
2022/09/28 11:30:37;;;;;;;1.30;0.90;;;;;;;24.08;39.47;98274.00;4952608;29;20075;-90
2022/09/28 11:33:10;;;;;;;2.97;1.42;;;;;;;24.10;39.21;98269.69;4905157;29;20074;-92
2022/09/28 11:36:12;;;;;;;4.57;1.50;;;;;;;24.24;40.34;98285.47;4902965;29;20071;-88
2022/09/28 11:39:18;;;;;;;;;;;;;;;;;;;;;
2022/09/28 11:41:52;;;;;;;2.38;1.20;;;;;;;24.30;37.08;98272.13;4938577;29;19911;-90
2022/09/28 11:44:33;;;;;;;1.17;0.73;;;;;;;24.34;36.43;98281.97;4921409;29;20024;-90
2022/09/28 11:47:11;;;;;;;2.55;0.63;;;;;;;24.28;36.19;98267.03;4938550;29;20533;-90
2022/09/28 11:49:42;;;;;;;1.80;0.70;;;;;;;24.32;35.95;98267.03;4904941;29;20066;-90
2022/09/28 11:52:33;;;;;;;2.90;1.30;;;;;;;24.26;37.81;98241.88;4922551;29;20473;-91
2022/09/28 11:55:35;;;;;;;2.10;0.80;;;;;;;24.37;36.99;98256.44;4922142;29;20038;-91
2022/09/28 11:58:37;;;;;;;3.30;0.80;;;;;;;24.33;38.64;98235.59;4915203;29;20043;-94
2022/09/28 12:01:21;;;;;;;1.83;0.80;;;;;;;24.33;35.77;98247.38;4909393;29;20040;-93
2022/09/28 12:03:52;;;;;;;2.10;0.70;;;;;;;24.51;35.51;98265.94;4918619;29;20067;-91
2022/09/28 12:06:18;;;;;;;1.50;0.90;;;;;;;24.47;35.78;98252.16;4903673;29;20060;-92
2022/09/28 12:08:53;;;;;;;1.67;0.88;;;;;;;24.40;34.98;98241.09;4871997;29;20088;-93
2022/09/28 12:11:50;;;;;;;3.97;0.80;;;;;;;24.57;35.78;98259.69;4903678;29;20032;-92
2022/09/28 12:15:01;;;;;;;1.25;0.75;;;;;;;24.54;36.66;98249.44;4903311;29;20043;-94
2022/09/28 12:17:38;;;;;;;6.05;1.63;;;;;;;24.48;38.51;98247.44;4932058;29;20438;-91
2022/09/28 12:20:28;;;;;;;4.43;1.27;;;;;;;24.36;36.94;98235.63;4888869;29;20040;-91
2022/09/28 12:23:05;;;;;;;3.17;0.80;;;;;;;24.47;36.53;98234.84;4921871;29;20066;-91
2022/09/28 12:25:35;;;;;;;2.08;1.02;;;;;;;24.57;36.53;98234.09;4920605;29;20114;-95
2022/09/28 12:28:22;;;;;;;2.33;1.00;;;;;;;24.74;34.75;98240.84;4905338;29;20027;-92
2022/09/28 12:30:50;;;;;;;1.55;0.70;;;;;;;24.76;34.65;98217.22;4938694;29;20039;-93
2022/09/28 12:33:18;;;;;;;3.85;1.13;;;;;;;24.79;35.50;98218.41;4938942;29;20055;-92
2022/09/28 12:36:06;;;;;;;1.92;1.15;;;;;;;24.79;36.36;98204.66;4894368;29;20028;-91
2022/09/28 12:39:12;;;;;;;1.73;1.08;;;;;;;24.89;36.75;98239.66;4906392;29;20024;-93
2022/09/28 12:41:41;;;;;;;1.42;0.70;;;;;;;24.84;36.33;98242.00;4921136;29;20035;-92
2022/09/28 12:44:24;;;;;;;3.53;1.55;;;;;;;24.85;37.61;98247.13;4938203;29;20038;-92
2022/09/28 12:47:08;;;;;;;1.75;0.90;;;;;;;24.84;35.89;98240.06;4939121;29;20391;-92
2022/09/28 12:50:07;;;;;;;1.45;0.95;;;;;;;24.86;35.41;98243.22;4939456;29;20411;-93
2022/09/28 12:52:58;;;;;;;2.90;0.65;;;;;;;24.76;35.43;98233.75;4922594;29;20167;-94
2022/09/28 12:55:27;;;;;;;0.88;0.70;;;;;;;24.65;35.35;98224.69;4926343;29;20031;-95
2022/09/28 12:58:05;;;;;;;2.13;0.90;;;;;;;24.72;35.22;98238.47;4922363;29;20051;-93
2022/09/28 13:00:53;;;;;;;1.00;0.60;;;;;;;24.54;36.18;98219.16;4907432;29;20510;-93
2022/09/28 13:03:22;;;;;;;1.55;0.70;;;;;;;24.72;36.03;98241.22;4920970;29;20047;-92
2022/09/28 13:06:25;;;;;;;1.70;1.05;;;;;;;24.57;36.82;98221.16;4940417;29;20122;-93
2022/09/28 13:08:57;;;;;;;1.33;0.70;;;;;;;24.63;36.07;98237.25;4905708;29;20039;-92
2022/09/28 13:11:32;;;;;;;1.48;0.95;;;;;;;24.61;36.93;98232.13;4919851;29;20578;-93
2022/09/28 13:14:54;;;;;;;1.67;0.50;;;;;;;24.57;36.16;98237.66;4905556;29;20083;-93